Dauphin, Canada
Current Conditions -  °F | °C
As of 7:01 PM on Monday 22 Dec 2014 (Local Time) from CYDN Reporting Station
Light Snow Light Snow  
Wind Chill: 19°   Ceiling: 500
Heat Index: 28°   Visibility: 3mi
Dew Point: 28°   Wind: 10mph
Humidity: 100%   Direction: 10°N
Pressure: 29.86"   Gusts: NA
Location:  51.15°N, 100.05°W
Report Text: CYDN 230101Z AUTO 01009KT 3SM -SN BKN005 OVC033 M02/M02 A2986 RMK SLP130
Loading
Personal Weather Stations






























Interactive Weather Map New forecast layout! Learn more

10-Day Weather Forecast

Advertisements
Track Severe Weather on mobile